Time;durP1;ratioP1;P1;durP2;ratioP2;P2;SDS_P1;SDS_P2;PMS_P1;PMS_P2;Temp;Humidity;BMP_temperature;BMP_pressure;BME280_temperature;BME280_humidity;BME280_pressure;Samples;Min_cycle;Max_cycle;Signal;HPM_P1;HPM_P2
2023/05/18 05:15:44;;;;;;;4.82;2.30;;;12.70;68.80;;;;;;5562800;23;20241;-72
2023/05/18 05:18:10;;;;;;;3.33;2.35;;;12.60;70.80;;;;;;4975465;28;20220;-73
2023/05/18 05:20:37;;;;;;;5.97;2.22;;;12.60;72.80;;;;;;4975798;28;20204;-72
2023/05/18 05:23:04;;;;;;;7.82;2.60;;;12.60;71.50;;;;;;4975507;28;20195;-72
2023/05/18 05:25:31;;;;;;;3.17;1.80;;;12.90;72.50;;;;;;4975430;28;20223;-73
2023/05/18 05:27:57;;;;;;;5.82;2.30;;;13.00;72.10;;;;;;4975377;28;20574;-73
2023/05/18 05:30:24;;;;;;;3.35;2.13;;;13.50;74.10;;;;;;4975323;28;20235;-73
2023/05/18 05:32:52;;;;;;;3.60;1.90;;;13.90;70.40;;;;;;4975371;28;20302;-73
2023/05/18 05:35:19;;;;;;;2.50;1.80;;;14.40;66.50;;;;;;4975254;28;20238;-73
2023/05/18 05:37:46;;;;;;;2.63;1.73;;;14.80;60.20;;;;;;4975270;28;20614;-73
2023/05/18 05:40:13;;;;;;;2.78;2.20;;;14.80;60.20;;;;;;4975220;28;20202;-73
2023/05/18 05:42:40;;;;;;;5.93;2.78;;;15.10;55.90;;;;;;4975216;28;20217;-73
2023/05/18 05:45:08;;;;;;;3.20;2.13;;;15.30;52.90;;;;;;4975716;28;20223;-72
2023/05/18 05:47:35;;;;;;;5.20;2.20;;;15.10;55.00;;;;;;4975185;28;20203;-72
2023/05/18 05:50:03;;;;;;;3.92;1.83;;;14.90;54.60;;;;;;4975069;28;20230;-74
2023/05/18 05:52:30;;;;;;;4.07;2.17;;;14.90;56.40;;;;;;4975060;28;20210;-72
2023/05/18 05:54:57;;;;;;;2.40;2.20;;;15.10;55.10;;;;;;4974944;28;20223;-72
2023/05/18 05:57:24;;;;;;;2.58;2.08;;;15.50;55.70;;;;;;4975713;28;20207;-72
2023/05/18 05:59:51;;;;;;;3.83;2.95;;;15.80;53.30;;;;;;4975123;28;20203;-71
2023/05/18 06:02:17;;;;;;;4.43;2.63;;;16.40;51.40;;;;;;4974841;28;20207;-71
2023/05/18 06:04:44;;;;;;;2.58;2.33;;;16.90;49.20;;;;;;4974820;28;20202;-71
2023/05/18 06:07:12;;;;;;;3.33;2.50;;;17.00;49.30;;;;;;4974788;28;20203;-71
2023/05/18 06:09:39;;;;;;;4.10;1.92;;;17.40;45.60;;;;;;4974478;28;20704;-71
2023/05/18 06:12:08;;;;;;;4.10;2.63;;;17.40;47.20;;;;;;4974723;28;20317;-71
2023/05/18 06:14:34;;;;;;;4.78;2.08;;;17.60;46.30;;;;;;4974550;28;20202;-71
2023/05/18 06:17:01;;;;;;;2.75;2.13;;;18.00;45.30;;;;;;4974126;28;20692;-71
2023/05/18 06:19:28;;;;;;;2.75;2.10;;;17.70;44.20;;;;;;4974536;28;20210;-71
2023/05/18 06:21:55;;;;;;;4.32;2.30;;;17.10;44.80;;;;;;4974708;28;20203;-71
2023/05/18 06:24:23;;;;;;;3.22;2.17;;;16.70;47.60;;;;;;4974647;28;20213;-71
2023/05/18 06:26:49;;;;;;;3.47;2.08;;;16.70;49.70;;;;;;4974588;28;20237;-70
2023/05/18 06:29:16;;;;;;;6.10;2.25;;;17.00;48.40;;;;;;4974584;28;20199;-70
2023/05/18 06:31:43;;;;;;;3.67;2.38;;;17.50;47.20;;;;;;4974251;28;20560;-70
2023/05/18 06:34:09;;;;;;;5.15;2.50;;;18.00;49.30;;;;;;4974554;28;20214;-69
2023/05/18 06:36:36;;;;;;;2.45;1.98;;;18.60;44.70;;;;;;4974543;28;20245;-75
2023/05/18 06:39:04;;;;;;;4.57;2.65;;;19.00;46.30;;;;;;4974585;28;20211;-71
2023/05/18 06:41:32;;;;;;;4.28;2.33;;;19.30;42.80;;;;;;4974545;28;20253;-72
2023/05/18 06:44:00;;;;;;;3.25;2.03;;;20.40;43.20;;;;;;4974548;28;20199;-74
2023/05/18 06:46:27;;;;;;;2.13;2.03;;;20.20;40.40;;;;;;4974511;28;20222;-71
2023/05/18 06:48:55;;;;;;;2.67;2.10;;;20.40;41.60;;;;;;4974173;28;20670;-72
2023/05/18 06:51:22;;;;;;;2.33;2.10;;;20.70;42.00;;;;;;4974629;28;20694;-72
2023/05/18 06:53:49;;;;;;;4.40;2.45;;;21.80;40.50;;;;;;4974937;28;20203;-73
2023/05/18 06:56:16;;;;;;;3.42;2.30;;;22.50;37.10;;;;;;4974463;28;20222;-74
2023/05/18 06:58:44;;;;;;;1.90;1.80;;;22.80;36.50;;;;;;4974490;28;20293;-74
2023/05/18 07:01:11;;;;;;;3.40;2.20;;;23.10;38.70;;;;;;4974572;28;20210;-74
2023/05/18 07:03:37;;;;;;;5.10;2.20;;;23.40;35.50;;;;;;4974391;28;20203;-74
2023/05/18 07:06:05;;;;;;;5.07;2.40;;;23.40;38.80;;;;;;4974096;28;20567;-74
2023/05/18 07:08:31;;;;;;;2.00;1.90;;;23.40;35.50;;;;;;4974899;28;20203;-74
2023/05/18 07:11:01;;;;;;;1.95;1.85;;;23.40;38.40;;;;;;4974253;28;20226;-74
2023/05/18 07:13:27;;;;;;;3.72;2.38;;;23.90;40.90;;;;;;4975189;28;20262;-74
2023/05/18 07:15:55;;;;;;;2.33;2.13;;;23.20;45.60;;;;;;4974712;28;20223;-74
2023/05/18 07:18:22;;;;;;;3.97;2.25;;;23.20;37.10;;;;;;4975578;28;20218;-74
2023/05/18 07:20:49;;;;;;;4.15;2.78;;;23.40;42.90;;;;;;4977988;28;20285;-73
2023/05/18 07:23:15;;;;;;;4.28;2.67;;;23.60;35.80;;;;;;4976534;28;20202;-74
2023/05/18 07:25:42;;;;;;;3.63;2.40;;;23.30;35.10;;;;;;4974219;28;20226;-74
2023/05/18 07:28:09;;;;;;;2.58;2.35;;;22.90;35.00;;;;;;4974787;28;20191;-73
2023/05/18 07:30:36;;;;;;;3.58;2.75;;;23.00;35.10;;;;;;4977352;28;20226;-73
2023/05/18 07:33:04;;;;;;;3.78;2.72;;;22.90;33.40;;;;;;4977493;28;20666;-72
2023/05/18 07:35:31;;;;;;;3.05;2.65;;;22.60;32.20;;;;;;4977410;28;20594;-73
2023/05/18 07:37:58;;;;;;;3.35;2.30;;;21.10;33.00;;;;;;4978119;28;20217;-73
2023/05/18 07:40:24;;;;;;;3.75;2.85;;;19.90;35.10;;;;;;4978646;28;20214;-73
2023/05/18 07:42:51;;;;;;;3.75;2.42;;;19.40;37.30;;;;;;4977798;28;20210;-73
2023/05/18 07:45:18;;;;;;;3.38;2.47;;;18.80;37.80;;;;;;4977327;28;20583;-72
2023/05/18 07:47:44;;;;;;;5.03;3.03;;;18.70;38.90;;;;;;4977362;28;20214;-73
2023/05/18 07:50:12;;;;;;;5.15;3.33;;;18.00;38.30;;;;;;4977642;28;20210;-74
2023/05/18 07:52:39;;;;;;;6.93;3.55;;;17.00;40.10;;;;;;4977235;28;20226;-73
2023/05/18 07:55:07;;;;;;;5.88;3.03;;;16.20;43.50;;;;;;4976913;28;20230;-73
2023/05/18 07:57:35;;;;;;;3.58;2.42;;;15.30;45.80;;;;;;4977193;28;20277;-73
2023/05/18 14:23:31;;;;;;;6.45;2.22;;;13.10;77.10;;;;;;5663429;23;20253;-75
2023/05/18 14:25:58;;;;;;;3.70;1.65;;;13.20;76.30;;;;;;4975207;28;20230;-74
2023/05/18 14:28:25;;;;;;;5.57;2.10;;;13.20;72.20;;;;;;4974712;28;20214;-74
2023/05/18 14:30:51;;;;;;;4.72;2.25;;;13.10;72.10;;;;;;4974857;28;20207;-74
2023/05/18 14:33:18;;;;;;;2.53;2.10;;;13.00;74.90;;;;;;4974557;28;20227;-73
2023/05/18 14:35:45;;;;;;;3.38;2.22;;;13.00;73.60;;;;;;4974569;28;20203;-73
2023/05/18 14:38:12;;;;;;;6.97;2.88;;;13.00;75.80;;;;;;4975685;28;20203;-74
2023/05/18 14:40:40;;;;;;;5.72;2.80;;;12.90;73.70;;;;;;4978818;28;20210;-73
2023/05/18 14:43:07;;;;;;;4.15;2.35;;;12.90;71.90;;;;;;4979052;28;20231;-73
2023/05/18 14:45:33;;;;;;;6.63;3.00;;;13.10;72.80;;;;;;4978683;28;20210;-73
2023/05/18 14:48:00;;;;;;;5.32;3.30;;;13.00;75.10;;;;;;4978408;28;20191;-73
2023/05/18 14:50:27;;;;;;;5.35;2.63;;;13.00;77.30;;;;;;4978524;28;20203;-73
2023/05/18 14:52:54;;;;;;;4.25;1.77;;;13.00;75.00;;;;;;4978040;28;20227;-76
2023/05/18 14:55:20;;;;;;;3.47;2.33;;;13.00;79.50;;;;;;4978375;28;20319;-75
2023/05/18 14:57:48;;;;;;;9.15;2.90;;;13.10;83.40;;;;;;4978331;28;20207;-75
2023/05/18 15:00:16;;;;;;;4.97;2.30;;;13.30;78.30;;;;;;4977878;28;20671;-74
2023/05/18 15:02:42;;;;;;;4.00;2.33;;;13.30;75.70;;;;;;4978238;28;20214;-74
2023/05/18 15:05:10;;;;;;;6.03;3.00;;;13.40;76.80;;;;;;4977903;28;20207;-75
2023/05/18 15:07:36;;;;;;;4.28;2.20;;;13.60;75.70;;;;;;4977889;28;20256;-72
2023/05/18 15:10:03;;;;;;;4.03;2.38;;;13.70;72.00;;;;;;4978012;28;20208;-73
2023/05/18 15:12:31;;;;;;;4.50;2.10;;;13.70;70.60;;;;;;4977850;28;20255;-73
2023/05/18 15:14:59;;;;;;;4.45;2.38;;;13.80;67.00;;;;;;4977614;28;20536;-74
2023/05/18 15:17:26;;;;;;;6.18;2.78;;;13.80;70.40;;;;;;4977670;28;20212;-73
2023/05/18 15:19:52;;;;;;;3.15;2.65;;;13.90;66.60;;;;;;4977984;28;20211;-74
2023/05/18 15:22:19;;;;;;;6.50;2.78;;;13.90;68.20;;;;;;4977746;28;20195;-74
2023/05/18 15:24:46;;;;;;;8.20;3.28;;;14.00;69.90;;;;;;4977757;28;20265;-73
2023/05/18 15:27:13;;;;;;;6.22;2.47;;;14.20;64.80;;;;;;4977493;28;20218;-74
2023/05/18 15:29:39;;;;;;;3.22;2.05;;;14.30;61.80;;;;;;4977500;28;20671;-74
2023/05/18 15:32:08;;;;;;;2.65;2.13;;;14.30;63.70;;;;;;4977436;28;20301;-73
2023/05/18 15:34:34;;;;;;;4.78;1.95;;;14.30;63.50;;;;;;4977629;28;20581;-74
2023/05/18 15:37:02;;;;;;;3.83;2.30;;;14.30;62.70;;;;;;4977530;28;20203;-74
2023/05/18 15:39:30;;;;;;;2.30;1.95;;;14.20;60.90;;;;;;4977535;28;20258;-73
2023/05/18 15:41:56;;;;;;;4.03;1.92;;;14.20;60.00;;;;;;4977518;28;20279;-75
2023/05/18 15:44:23;;;;;;;2.55;1.60;;;14.10;57.60;;;;;;4976965;28;20723;-74
2023/05/18 15:46:50;;;;;;;2.00;1.90;;;14.00;61.40;;;;;;4977256;28;20230;-74
2023/05/18 15:49:20;;;;;;;2.75;2.00;;;13.90;59.80;;;;;;4976510;28;20188;-73
2023/05/18 15:51:47;;;;;;;2.38;1.67;;;13.90;59.70;;;;;;4976935;28;20234;-73
2023/05/18 15:54:13;;;;;;;3.80;1.52;;;13.90;60.50;;;;;;4977119;28;20311;-73
2023/05/18 15:56:40;;;;;;;2.13;1.90;;;13.80;62.10;;;;;;4976995;28;20242;-74
2023/05/18 15:59:07;;;;;;;2.75;1.52;;;13.90;61.50;;;;;;4976877;28;20203;-74
2023/05/18 16:01:34;;;;;;;3.15;1.52;;;13.80;61.70;;;;;;4976918;28;20286;-74
2023/05/18 16:04:01;;;;;;;3.55;2.10;;;13.80;62.30;;;;;;4976574;28;20594;-74
2023/05/18 16:06:29;;;;;;;3.92;1.90;;;13.80;64.10;;;;;;4976525;28;20203;-73
2023/05/18 16:08:56;;;;;;;3.00;1.70;;;13.70;63.70;;;;;;4977034;28;20230;-74
2023/05/18 16:11:23;;;;;;;6.43;1.83;;;13.70;65.30;;;;;;4976466;28;20579;-73
2023/05/18 16:13:53;;;;;;;4.70;2.60;;;13.70;64.60;;;;;;4976751;28;20227;-73
2023/05/18 16:16:20;;;;;;;3.97;2.00;;;13.70;64.30;;;;;;4976579;28;20203;-73
2023/05/18 16:18:47;;;;;;;5.93;2.00;;;13.60;64.90;;;;;;4976756;28;20310;-73
2023/05/18 16:21:14;;;;;;;2.33;1.90;;;13.50;63.40;;;;;;4976412;28;20675;-73
2023/05/18 16:23:42;;;;;;;6.88;2.10;;;13.50;68.30;;;;;;4976632;28;20227;-72
2023/05/18 16:26:09;;;;;;;4.78;2.35;;;13.40;68.50;;;;;;4976445;28;20207;-73
2023/05/18 16:28:36;;;;;;;3.50;2.08;;;13.30;71.20;;;;;;4976727;28;20210;-72
2023/05/18 16:31:03;;;;;;;3.85;1.75;;;13.30;72.30;;;;;;4976567;28;20203;-73
2023/05/18 16:33:30;;;;;;;3.33;2.00;;;13.20;73.80;;;;;;4976650;28;20237;-72
2023/05/18 16:35:57;;;;;;;2.45;2.25;;;13.20;73.20;;;;;;4977311;28;20203;-73
2023/05/18 16:38:25;;;;;;;2.13;1.92;;;13.10;76.10;;;;;;4976606;28;20207;-73
2023/05/18 16:40:53;;;;;;;2.88;1.98;;;13.00;75.60;;;;;;4976384;28;20290;-72
2023/05/18 16:43:20;;;;;;;4.20;1.75;;;12.90;77.90;;;;;;4976408;28;20244;-72
2023/05/18 16:45:46;;;;;;;3.50;1.63;;;12.80;82.50;;;;;;4976348;28;20210;-73
2023/05/18 16:48:13;;;;;;;4.70;1.77;;;12.80;81.60;;;;;;4976437;28;20207;-73
2023/05/18 16:50:40;;;;;;;3.70;1.88;;;12.70;79.50;;;;;;4976404;28;20203;-72
2023/05/18 16:53:06;;;;;;;3.65;2.08;;;12.50;82.00;;;;;;4976128;28;20261;-72
2023/05/18 16:55:33;;;;;;;4.32;2.03;;;12.50;82.80;;;;;;4975786;28;20203;-71
2023/05/18 16:58:02;;;;;;;2.30;1.55;;;12.60;81.40;;;;;;4976047;28;20614;-71
2023/05/18 17:00:29;;;;;;;1.75;1.65;;;12.50;84.60;;;;;;4975926;28;20203;-74
2023/05/18 17:02:56;;;;;;;1.70;1.52;;;12.50;83.00;;;;;;4975956;28;20219;-74
2023/05/18 17:05:23;;;;;;;2.67;1.58;;;12.40;82.70;;;;;;4976406;28;20210;-74
2023/05/18 17:07:50;;;;;;;5.38;1.88;;;12.40;84.10;;;;;;4975837;28;20206;-74
2023/05/18 17:10:17;;;;;;;4.10;2.03;;;12.40;83.90;;;;;;4975717;28;20262;-74
2023/05/18 17:12:44;;;;;;;3.20;2.00;;;12.40;84.60;;;;;;4975290;28;20761;-74
2023/05/18 17:15:13;;;;;;;6.57;2.08;;;12.40;88.00;;;;;;4975631;28;20210;-74
2023/05/18 17:17:40;;;;;;;5.35;2.42;;;12.40;87.20;;;;;;4975686;28;20232;-74
2023/05/18 17:20:09;;;;;;;3.60;2.05;;;12.30;90.10;;;;;;4975562;28;20203;-73
2023/05/18 17:22:36;;;;;;;4.05;1.98;;;12.20;91.90;;;;;;4975441;28;20199;-73
2023/05/18 17:25:03;;;;;;;5.70;3.28;;;12.20;92.00;;;;;;4975339;28;20214;-74
2023/05/18 17:27:30;;;;;;;5.13;2.97;;;12.20;92.30;;;;;;4975316;28;20576;-75
2023/05/18 17:29:57;;;;;;;8.13;4.10;;;12.20;92.10;;;;;;4975358;28;20203;-74
2023/05/18 17:32:25;;;;;;;7.75;4.65;;;12.20;93.10;;;;;;4975237;28;20212;-73
2023/05/18 17:34:52;;;;;;;4.15;3.15;;;12.20;92.30;;;;;;4975314;28;20230;-73
2023/05/18 17:37:19;;;;;;;6.05;2.90;;;12.20;92.60;;;;;;4975645;28;20203;-73
2023/05/18 17:39:45;;;;;;;3.17;2.03;;;12.10;92.30;;;;;;4975619;28;20231;-73
2023/05/18 17:42:12;;;;;;;3.55;2.30;;;12.10;94.10;;;;;;4974901;28;20575;-73
2023/05/18 17:44:39;;;;;;;5.97;2.80;;;12.00;96.20;;;;;;4975052;28;20269;-73
2023/05/18 17:47:06;;;;;;;7.53;2.80;;;12.00;94.60;;;;;;4975011;28;20203;-72
2023/05/18 17:49:34;;;;;;;4.35;2.53;;;12.00;94.60;;;;;;4975080;28;20204;-73
2023/05/18 17:52:02;;;;;;;2.40;2.00;;;11.90;94.40;;;;;;4974995;28;20313;-73
2023/05/18 17:54:29;;;;;;;3.78;1.85;;;11.90;94.40;;;;;;4974897;28;20219;-73
2023/05/18 17:56:56;;;;;;;3.08;1.65;;;11.90;94.00;;;;;;4974564;28;20636;-73
2023/05/18 17:59:23;;;;;;;3.78;2.20;;;11.90;94.30;;;;;;4974566;28;20231;-74
2023/05/18 18:01:49;;;;;;;2.97;2.00;;;11.80;94.50;;;;;;4974732;28;20195;-73
2023/05/18 18:04:16;;;;;;;3.50;1.80;;;11.80;95.40;;;;;;4974943;28;20251;-74
2023/05/18 18:06:44;;;;;;;6.63;1.85;;;11.70;95.50;;;;;;4975039;28;20214;-74
2023/05/18 18:09:11;;;;;;;4.15;2.35;;;11.70;96.10;;;;;;4974946;28;20214;-73
2023/05/18 18:11:38;;;;;;;3.10;1.73;;;11.60;98.20;;;;;;4974765;28;20212;-74
2023/05/18 18:14:04;;;;;;;3.17;1.88;;;11.60;99.90;;;;;;4974530;28;20231;-73
2023/05/18 18:16:31;;;;;;;3.67;2.33;;;11.60;99.40;;;;;;4974727;28;20203;-72
2023/05/18 18:18:58;;;;;;;2.30;2.08;;;11.60;99.70;;;;;;4975649;28;20230;-72
2023/05/18 18:21:24;;;;;;;5.40;2.50;;;11.60;99.90;;;;;;4974680;28;20218;-74
2023/05/18 18:23:52;;;;;;;8.25;2.10;;;11.60;99.90;;;;;;4974803;28;20215;-72
2023/05/18 18:26:20;;;;;;;4.40;2.70;;;11.50;99.90;;;;;;4974217;28;20215;-72
2023/05/18 18:28:47;;;;;;;4.95;2.33;;;11.50;99.90;;;;;;4974632;28;20305;-72
2023/05/18 18:31:13;;;;;;;4.57;2.47;;;11.50;99.90;;;;;;4974521;28;20204;-74
2023/05/18 18:33:42;;;;;;;3.28;2.45;;;11.40;99.90;;;;;;4974870;28;20227;-73
2023/05/18 18:36:09;;;;;;;1.90;1.80;;;11.40;99.90;;;;;;4974549;28;20211;-73
2023/05/18 18:38:36;;;;;;;5.40;2.42;;;11.40;99.90;;;;;;4974390;28;20199;-72
2023/05/18 18:41:04;;;;;;;5.03;2.20;;;11.40;99.90;;;;;;4974045;28;20574;-74
2023/05/18 18:43:30;;;;;;;3.92;1.85;;;11.40;99.90;;;;;;4974331;28;20230;-73
2023/05/18 18:45:57;;;;;;;4.13;2.17;;;11.30;99.90;;;;;;4974529;28;20203;-73
2023/05/18 18:48:24;;;;;;;2.22;2.00;;;11.30;99.90;;;;;;4974009;28;20210;-72
2023/05/18 18:50:51;;;;;;;5.70;2.63;;;11.30;99.90;;;;;;4974546;28;20203;-73
2023/05/18 18:53:18;;;;;;;2.78;2.38;;;11.30;99.90;;;;;;4974153;28;20230;-72
2023/05/18 18:55:45;;;;;;;4.03;2.20;;;11.30;99.90;;;;;;4974318;28;20207;-72
2023/05/18 18:58:13;;;;;;;4.95;2.83;;;11.30;99.90;;;;;;4974564;28;20258;-72
2023/05/18 19:00:39;;;;;;;5.97;2.55;;;11.30;99.90;;;;;;4974384;28;20215;-73
2023/05/18 19:03:08;;;;;;;2.78;2.30;;;11.30;99.90;;;;;;4974317;28;20226;-73
2023/05/18 19:05:35;;;;;;;3.25;2.20;;;11.20;99.90;;;;;;4974251;28;20211;-73
2023/05/18 19:08:02;;;;;;;3.03;2.58;;;11.20;99.90;;;;;;4973928;28;20242;-73
2023/05/18 19:10:30;;;;;;;4.15;2.22;;;11.20;99.90;;;;;;4974192;28;20204;-72
2023/05/18 19:12:58;;;;;;;5.88;2.28;;;11.20;99.90;;;;;;4973856;28;20695;-73
2023/05/18 19:15:26;;;;;;;3.42;2.35;;;11.20;99.90;;;;;;4974206;28;20254;-73
2023/05/18 19:17:53;;;;;;;5.32;2.40;;;11.20;99.90;;;;;;4974331;28;20258;-73
2023/05/18 19:20:21;;;;;;;2.80;2.17;;;11.10;99.90;;;;;;4974344;28;20210;-72
2023/05/18 19:22:47;;;;;;;3.65;2.40;;;11.20;99.90;;;;;;4974481;28;20239;-72
2023/05/18 19:25:14;;;;;;;2.70;2.00;;;11.10;99.90;;;;;;4975033;28;20203;-73
2023/05/18 19:27:41;;;;;;;2.63;2.33;;;11.10;99.90;;;;;;4978709;28;20192;-73
2023/05/18 19:30:10;;;;;;;3.13;2.50;;;11.10;99.90;;;;;;4978258;28;20204;-73
2023/05/18 19:32:39;;;;;;;2.30;2.10;;;11.10;99.90;;;;;;4977356;28;20635;-73
2023/05/18 19:35:06;;;;;;;3.25;2.53;;;11.10;99.90;;;;;;4978381;28;20213;-74
2023/05/18 19:37:32;;;;;;;4.53;3.22;;;11.10;99.90;;;;;;4977633;28;20206;-73
2023/05/18 19:39:59;;;;;;;4.47;2.75;;;11.10;99.90;;;;;;4977237;28;20671;-73
2023/05/18 19:42:26;;;;;;;4.13;2.75;;;11.10;99.90;;;;;;4977554;28;20278;-73
2023/05/18 19:44:52;;;;;;;9.30;2.95;;;11.10;99.90;;;;;;4977578;28;20223;-73
2023/05/18 19:47:19;;;;;;;4.40;2.45;;;11.10;99.90;;;;;;4977354;28;20210;-73
2023/05/18 19:49:47;;;;;;;5.55;2.95;;;11.10;99.90;;;;;;4977159;28;20547;-73
2023/05/18 19:52:16;;;;;;;8.05;2.70;;;11.10;99.90;;;;;;5282256;23;20371;-74
2023/05/18 19:54:42;;;;;;;4.03;2.58;;;11.10;99.90;;;;;;4976786;28;20262;-73
2023/05/18 19:57:09;;;;;;;6.20;2.70;;;11.10;99.90;;;;;;4977320;28;20203;-75
2023/05/18 19:59:36;;;;;;;4.53;2.30;;;11.00;99.90;;;;;;4977334;28;20234;-74
2023/05/18 20:02:03;;;;;;;3.38;2.30;;;11.00;99.90;;;;;;4978190;28;20220;-74
2023/05/18 20:04:32;;;;;;;5.18;2.42;;;11.00;99.90;;;;;;4977607;28;20389;-74
2023/05/18 20:07:00;;;;;;;4.57;2.85;;;11.00;99.90;;;;;;4977318;28;20204;-74
2023/05/18 20:09:27;;;;;;;2.78;2.30;;;11.00;99.90;;;;;;4977239;28;20294;-74
2023/05/18 20:11:55;;;;;;;7.13;2.60;;;11.00;99.90;;;;;;4977626;28;20227;-74
2023/05/18 20:14:22;;;;;;;8.00;3.13;;;11.00;99.90;;;;;;4977270;28;20266;-74
2023/05/18 20:16:49;;;;;;;3.38;2.30;;;11.00;99.90;;;;;;4977518;28;20210;-74
2023/05/18 20:19:16;;;;;;;6.90;2.25;;;11.00;99.90;;;;;;4977977;28;20216;-74
2023/05/18 20:21:44;;;;;;;4.85;2.80;;;11.00;99.90;;;;;;4977175;28;20234;-74
2023/05/18 20:24:12;;;;;;;4.60;2.47;;;11.00;99.90;;;;;;4977431;28;20196;-74
2023/05/18 20:26:39;;;;;;;4.30;2.67;;;10.90;99.90;;;;;;4977146;28;20551;-72
2023/05/18 20:29:05;;;;;;;5.28;2.55;;;10.90;99.90;;;;;;4976789;28;20214;-73
2023/05/18 20:31:32;;;;;;;4.78;2.95;;;10.90;99.90;;;;;;4976512;28;20232;-74
2023/05/18 20:33:59;;;;;;;6.25;2.42;;;10.90;99.90;;;;;;4976515;28;20223;-74
2023/05/18 20:36:25;;;;;;;4.72;2.42;;;10.90;99.90;;;;;;4976126;28;20204;-74
2023/05/18 20:38:53;;;;;;;4.05;2.60;;;10.90;99.90;;;;;;4976323;28;20663;-74
2023/05/18 20:41:22;;;;;;;5.28;2.72;;;10.90;99.90;;;;;;4976679;28;20199;-74
2023/05/18 20:43:49;;;;;;;4.22;2.17;;;10.90;99.90;;;;;;4976755;28;20402;-76
2023/05/18 20:46:19;;;;;;;4.25;2.08;;;10.90;99.90;;;;;;4976339;28;20210;-76
2023/05/18 20:48:46;;;;;;;3.70;2.30;;;10.80;99.90;;;;;;4976526;28;20203;-75
2023/05/18 20:51:15;;;;;;;4.63;2.20;;;10.80;99.90;;;;;;4977113;28;20214;-72
2023/05/18 20:53:42;;;;;;;2.67;1.95;;;10.80;99.90;;;;;;4976136;28;20226;-75
2023/05/18 20:56:10;;;;;;;2.55;1.95;;;10.80;99.90;;;;;;4975942;28;20566;-75
2023/05/18 20:58:41;;;;;;;4.10;1.88;;;10.80;99.90;;;;;;4976029;28;20203;-75
2023/05/18 21:01:09;;;;;;;5.03;1.80;;;10.80;99.90;;;;;;4975952;28;20594;-75
2023/05/18 21:03:37;;;;;;;3.90;2.45;;;10.80;99.90;;;;;;4975935;28;20788;-74
2023/05/18 21:06:04;;;;;;;3.22;2.33;;;10.80;99.90;;;;;;4976070;28;20207;-75
2023/05/18 21:08:31;;;;;;;2.72;2.17;;;10.80;99.90;;;;;;4976225;28;20284;-76
2023/05/18 21:10:58;;;;;;;5.45;2.15;;;10.80;99.90;;;;;;4976031;28;20203;-76
2023/05/18 21:13:24;;;;;;;6.82;2.83;;;10.80;99.90;;;;;;4976214;28;20223;-76
2023/05/18 21:15:53;;;;;;;4.53;2.03;;;10.80;99.90;;;;;;4976385;28;20306;-75
2023/05/18 21:18:19;;;;;;;4.80;2.30;;;10.80;99.90;;;;;;4976024;28;20277;-75
2023/05/18 21:20:46;;;;;;;2.92;2.05;;;10.70;99.90;;;;;;4976127;28;20255;-75
2023/05/18 21:23:13;;;;;;;1.60;1.35;;;10.80;99.90;;;;;;4975703;28;20219;-75
2023/05/18 21:25:40;;;;;;;3.17;2.00;;;10.70;99.90;;;;;;4975809;28;20206;-74
2023/05/18 21:28:07;;;;;;;4.00;2.40;;;10.70;99.90;;;;;;4975825;28;20199;-75
2023/05/18 21:30:33;;;;;;;1.95;1.70;;;10.60;99.90;;;;;;4975718;28;20203;-71
2023/05/18 21:33:01;;;;;;;3.10;1.92;;;10.60;99.90;;;;;;4975231;28;20224;-71
2023/05/18 21:35:28;;;;;;;4.10;2.03;;;10.60;99.90;;;;;;4975417;28;20207;-69
2023/05/18 21:37:55;;;;;;;3.97;2.00;;;10.60;99.90;;;;;;4975382;28;20206;-69
2023/05/18 21:40:22;;;;;;;2.78;1.73;;;10.50;99.90;;;;;;4975342;28;20207;-70
2023/05/18 21:42:49;;;;;;;2.22;2.00;;;10.50;99.90;;;;;;4975534;28;20591;-70
2023/05/18 21:45:16;;;;;;;3.05;2.10;;;10.50;99.90;;;;;;4975303;28;20199;-70
2023/05/18 21:47:43;;;;;;;6.88;2.10;;;10.50;99.90;;;;;;4974798;28;20205;-70
2023/05/18 21:50:12;;;;;;;5.63;2.00;;;10.50;99.90;;;;;;4975457;28;20214;-70
2023/05/18 21:52:38;;;;;;;3.50;1.77;;;10.50;99.90;;;;;;4975068;28;20239;-70
2023/05/18 21:55:06;;;;;;;6.30;1.95;;;10.50;99.90;;;;;;4975213;28;20230;-70
2023/05/18 21:57:34;;;;;;;4.80;2.55;;;10.40;99.90;;;;;;4975057;28;20203;-71
2023/05/18 22:00:01;;;;;;;4.32;2.10;;;10.40;99.90;;;;;;4974944;28;20214;-71
2023/05/18 22:02:27;;;;;;;5.13;2.15;;;10.40;99.90;;;;;;4974757;28;20590;-71
2023/05/18 22:04:54;;;;;;;2.92;1.85;;;10.40;99.90;;;;;;4975002;28;20211;-70
2023/05/18 22:07:22;;;;;;;3.40;2.17;;;10.40;99.90;;;;;;4974623;28;20207;-72
2023/05/18 22:09:50;;;;;;;3.05;1.77;;;10.40;99.90;;;;;;4974892;28;20203;-72
2023/05/18 22:12:17;;;;;;;3.65;2.08;;;10.40;99.90;;;;;;4975149;28;20219;-72
2023/05/18 22:14:44;;;;;;;2.75;1.95;;;10.40;99.90;;;;;;4974488;28;20717;-72
2023/05/18 22:17:10;;;;;;;3.65;1.83;;;10.40;99.90;;;;;;4974862;28;20286;-71
2023/05/18 22:19:37;;;;;;;2.15;1.50;;;10.30;99.90;;;;;;4974460;28;20671;-71
2023/05/18 22:22:04;;;;;;;7.97;2.42;;;10.30;99.90;;;;;;4975021;28;20227;-72
2023/05/18 22:24:32;;;;;;;2.00;1.90;;;10.40;99.90;;;;;;4974755;28;20211;-72
2023/05/18 22:26:59;;;;;;;3.92;1.75;;;10.40;99.90;;;;;;4974588;28;20203;-72
2023/05/18 22:29:25;;;;;;;5.65;1.95;;;10.40;99.90;;;;;;4974627;28;20214;-69
